sensor_id;sensor_type;location;lat;lon;timestamp;temperature;humidity
50570;DHT22;36525;49.398;7.614;2023-04-26T00:02:00;3.10;99.90
50570;DHT22;36525;49.398;7.614;2023-04-26T00:04:27;3.10;99.90
50570;DHT22;36525;49.398;7.614;2023-04-26T00:06:55;3.00;99.90
50570;DHT22;36525;49.398;7.614;2023-04-26T00:09:23;3.10;99.90
50570;DHT22;36525;49.398;7.614;2023-04-26T00:11:50;3.00;99.90
50570;DHT22;36525;49.398;7.614;2023-04-26T00:14:17;3.00;99.90
50570;DHT22;36525;49.398;7.614;2023-04-26T00:16:44;3.00;99.90
50570;DHT22;36525;49.398;7.614;2023-04-26T00:19:12;2.90;99.90
50570;DHT22;36525;49.398;7.614;2023-04-26T00:21:39;2.80;99.90
50570;DHT22;36525;49.398;7.614;2023-04-26T00:24:06;2.70;99.90
50570;DHT22;36525;49.398;7.614;2023-04-26T00:26:34;2.70;99.90
50570;DHT22;36525;49.398;7.614;2023-04-26T00:29:03;2.70;99.90
50570;DHT22;36525;49.398;7.614;2023-04-26T00:31:30;2.70;99.90
50570;DHT22;36525;49.398;7.614;2023-04-26T00:33:57;2.70;99.90
50570;DHT22;36525;49.398;7.614;2023-04-26T00:36:24;2.70;99.90
50570;DHT22;36525;49.398;7.614;2023-04-26T00:38:52;2.60;99.90
50570;DHT22;36525;49.398;7.614;2023-04-26T00:41:19;2.60;99.90
50570;DHT22;36525;49.398;7.614;2023-04-26T00:43:47;2.50;99.90
50570;DHT22;36525;49.398;7.614;2023-04-26T00:46:15;2.50;99.90
50570;DHT22;36525;49.398;7.614;2023-04-26T00:48:43;2.50;99.90
50570;DHT22;36525;49.398;7.614;2023-04-26T00:51:10;2.50;99.90
50570;DHT22;36525;49.398;7.614;2023-04-26T00:53:39;2.50;99.90
50570;DHT22;36525;49.398;7.614;2023-04-26T00:56:08;2.40;99.90
50570;DHT22;36525;49.398;7.614;2023-04-26T00:58:37;2.30;99.90
50570;DHT22;36525;49.398;7.614;2023-04-26T01:01:04;2.30;99.90
50570;DHT22;36525;49.398;7.614;2023-04-26T01:03:33;2.30;99.90
50570;DHT22;36525;49.398;7.614;2023-04-26T01:06:00;2.30;99.90
50570;DHT22;36525;49.398;7.614;2023-04-26T01:08:29;2.20;99.90
50570;DHT22;36525;49.398;7.614;2023-04-26T01:10:57;2.20;99.90
50570;DHT22;36525;49.398;7.614;2023-04-26T01:13:24;2.20;99.90
50570;DHT22;36525;49.398;7.614;2023-04-26T01:15:52;2.10;99.90
50570;DHT22;36525;49.398;7.614;2023-04-26T01:18:21;2.10;99.90
50570;DHT22;36525;49.398;7.614;2023-04-26T01:20:48;2.10;99.90
50570;DHT22;36525;49.398;7.614;2023-04-26T01:23:19;2.10;99.90
50570;DHT22;36525;49.398;7.614;2023-04-26T01:25:46;2.10;99.90
50570;DHT22;36525;49.398;7.614;2023-04-26T01:28:13;2.10;99.90
50570;DHT22;36525;49.398;7.614;2023-04-26T01:30:41;2.10;99.90
50570;DHT22;36525;49.398;7.614;2023-04-26T01:33:09;2.10;99.90
50570;DHT22;36525;49.398;7.614;2023-04-26T01:35:36;2.00;99.90
50570;DHT22;36525;49.398;7.614;2023-04-26T01:38:03;1.90;99.90
50570;DHT22;36525;49.398;7.614;2023-04-26T01:40:30;1.90;99.90
50570;DHT22;36525;49.398;7.614;2023-04-26T01:42:58;1.90;99.90
50570;DHT22;36525;49.398;7.614;2023-04-26T01:45:25;1.90;99.90
50570;DHT22;36525;49.398;7.614;2023-04-26T01:47:53;1.90;99.90
50570;DHT22;36525;49.398;7.614;2023-04-26T01:50:20;1.90;99.90
50570;DHT22;36525;49.398;7.614;2023-04-26T01:52:47;1.90;99.90
50570;DHT22;36525;49.398;7.614;2023-04-26T01:55:14;1.80;99.90
50570;DHT22;36525;49.398;7.614;2023-04-26T01:57:41;1.70;99.90
50570;DHT22;36525;49.398;7.614;2023-04-26T02:00:11;1.70;99.90
50570;DHT22;36525;49.398;7.614;2023-04-26T02:02:38;1.70;99.90
50570;DHT22;36525;49.398;7.614;2023-04-26T02:05:09;1.70;99.90
50570;DHT22;36525;49.398;7.614;2023-04-26T02:07:38;1.60;99.90
50570;DHT22;36525;49.398;7.614;2023-04-26T02:10:05;1.60;99.90
50570;DHT22;36525;49.398;7.614;2023-04-26T02:12:33;1.50;99.90
50570;DHT22;36525;49.398;7.614;2023-04-26T02:15:01;1.50;99.90
50570;DHT22;36525;49.398;7.614;2023-04-26T02:17:31;1.50;99.90
50570;DHT22;36525;49.398;7.614;2023-04-26T02:19:59;1.50;99.90
50570;DHT22;36525;49.398;7.614;2023-04-26T02:22:26;1.50;99.90
50570;DHT22;36525;49.398;7.614;2023-04-26T02:24:53;1.50;99.90
50570;DHT22;36525;49.398;7.614;2023-04-26T02:27:21;1.50;99.90
50570;DHT22;36525;49.398;7.614;2023-04-26T02:29:48;1.50;99.90
50570;DHT22;36525;49.398;7.614;2023-04-26T02:32:15;1.50;99.90
50570;DHT22;36525;49.398;7.614;2023-04-26T02:34:43;1.60;99.90
50570;DHT22;36525;49.398;7.614;2023-04-26T02:37:10;1.50;99.90
50570;DHT22;36525;49.398;7.614;2023-04-26T02:39:37;1.50;99.90
50570;DHT22;36525;49.398;7.614;2023-04-26T02:42:08;1.40;99.90
50570;DHT22;36525;49.398;7.614;2023-04-26T02:44:36;1.40;99.90
50570;DHT22;36525;49.398;7.614;2023-04-26T02:47:05;1.40;99.90
50570;DHT22;36525;49.398;7.614;2023-04-26T02:49:32;1.40;99.90
50570;DHT22;36525;49.398;7.614;2023-04-26T02:52:00;1.40;99.90
50570;DHT22;36525;49.398;7.614;2023-04-26T02:54:27;1.40;99.90
50570;DHT22;36525;49.398;7.614;2023-04-26T02:56:54;1.40;99.90
50570;DHT22;36525;49.398;7.614;2023-04-26T02:59:21;1.40;99.90
50570;DHT22;36525;49.398;7.614;2023-04-26T03:01:48;1.40;99.90
50570;DHT22;36525;49.398;7.614;2023-04-26T03:04:15;1.40;99.90
50570;DHT22;36525;49.398;7.614;2023-04-26T03:06:43;1.30;99.90
50570;DHT22;36525;49.398;7.614;2023-04-26T03:09:10;1.30;99.90
50570;DHT22;36525;49.398;7.614;2023-04-26T03:11:37;1.30;99.90
50570;DHT22;36525;49.398;7.614;2023-04-26T03:14:04;1.30;99.90
50570;DHT22;36525;49.398;7.614;2023-04-26T03:16:40;1.10;99.90
50570;DHT22;36525;49.398;7.614;2023-04-26T03:19:08;1.10;99.90
50570;DHT22;36525;49.398;7.614;2023-04-26T03:21:35;1.00;99.90
50570;DHT22;36525;49.398;7.614;2023-04-26T03:24:03;1.00;99.90
50570;DHT22;36525;49.398;7.614;2023-04-26T03:26:30;1.00;99.90
50570;DHT22;36525;49.398;7.614;2023-04-26T03:28:57;1.10;99.90
50570;DHT22;36525;49.398;7.614;2023-04-26T03:31:24;1.10;99.90
50570;DHT22;36525;49.398;7.614;2023-04-26T03:33:52;1.10;99.90
50570;DHT22;36525;49.398;7.614;2023-04-26T03:36:19;1.00;99.90
50570;DHT22;36525;49.398;7.614;2023-04-26T03:38:46;1.00;99.90
50570;DHT22;36525;49.398;7.614;2023-04-26T03:41:14;1.00;99.90
50570;DHT22;36525;49.398;7.614;2023-04-26T03:43:41;1.00;99.90
50570;DHT22;36525;49.398;7.614;2023-04-26T03:46:08;1.00;99.90
50570;DHT22;36525;49.398;7.614;2023-04-26T03:48:35;1.00;99.90
50570;DHT22;36525;49.398;7.614;2023-04-26T03:51:02;0.90;99.90
50570;DHT22;36525;49.398;7.614;2023-04-26T03:53:29;1.00;99.90
50570;DHT22;36525;49.398;7.614;2023-04-26T03:55:56;1.00;99.90
50570;DHT22;36525;49.398;7.614;2023-04-26T03:58:27;0.90;99.90
50570;DHT22;36525;49.398;7.614;2023-04-26T04:00:57;1.00;99.90
50570;DHT22;36525;49.398;7.614;2023-04-26T04:03:24;0.90;99.90
50570;DHT22;36525;49.398;7.614;2023-04-26T04:05:51;0.90;99.90
50570;DHT22;36525;49.398;7.614;2023-04-26T04:08:18;0.90;99.90
50570;DHT22;36525;49.398;7.614;2023-04-26T04:10:45;0.90;99.90
50570;DHT22;36525;49.398;7.614;2023-04-26T04:13:13;0.80;99.90
50570;DHT22;36525;49.398;7.614;2023-04-26T04:15:40;0.80;99.90
50570;DHT22;36525;49.398;7.614;2023-04-26T04:18:07;0.80;99.90
50570;DHT22;36525;49.398;7.614;2023-04-26T04:20:34;0.80;99.90
50570;DHT22;36525;49.398;7.614;2023-04-26T04:23:02;0.80;99.90
50570;DHT22;36525;49.398;7.614;2023-04-26T04:25:32;0.80;99.90
50570;DHT22;36525;49.398;7.614;2023-04-26T04:28:03;0.70;99.90
50570;DHT22;36525;49.398;7.614;2023-04-26T04:30:31;0.80;99.90
50570;DHT22;36525;49.398;7.614;2023-04-26T04:32:58;0.80;99.90
50570;DHT22;36525;49.398;7.614;2023-04-26T04:35:26;0.80;99.90
50570;DHT22;36525;49.398;7.614;2023-04-26T04:37:55;0.80;99.90
50570;DHT22;36525;49.398;7.614;2023-04-26T04:40:26;0.90;99.90
50570;DHT22;36525;49.398;7.614;2023-04-26T04:42:53;0.90;99.90
50570;DHT22;36525;49.398;7.614;2023-04-26T04:45:21;1.00;99.90
50570;DHT22;36525;49.398;7.614;2023-04-26T04:47:48;1.00;99.90
50570;DHT22;36525;49.398;7.614;2023-04-26T04:50:15;1.00;99.90
50570;DHT22;36525;49.398;7.614;2023-04-26T04:52:42;1.10;99.90
50570;DHT22;36525;49.398;7.614;2023-04-26T04:55:09;1.10;99.90
50570;DHT22;36525;49.398;7.614;2023-04-26T04:57:36;1.10;99.90
50570;DHT22;36525;49.398;7.614;2023-04-26T05:00:08;1.10;99.90
50570;DHT22;36525;49.398;7.614;2023-04-26T05:02:36;1.10;99.90
50570;DHT22;36525;49.398;7.614;2023-04-26T05:05:04;1.10;99.90
50570;DHT22;36525;49.398;7.614;2023-04-26T05:07:32;1.10;99.90
50570;DHT22;36525;49.398;7.614;2023-04-26T05:10:00;1.10;99.90
50570;DHT22;36525;49.398;7.614;2023-04-26T05:12:27;1.20;99.90
50570;DHT22;36525;49.398;7.614;2023-04-26T05:14:56;1.10;99.90
50570;DHT22;36525;49.398;7.614;2023-04-26T05:17:23;1.20;99.90
50570;DHT22;36525;49.398;7.614;2023-04-26T05:19:50;1.10;99.90
50570;DHT22;36525;49.398;7.614;2023-04-26T05:22:17;1.00;99.90
50570;DHT22;36525;49.398;7.614;2023-04-26T05:24:47;1.00;99.90
50570;DHT22;36525;49.398;7.614;2023-04-26T05:27:15;1.00;99.90
50570;DHT22;36525;49.398;7.614;2023-04-26T05:29:42;1.00;99.90
50570;DHT22;36525;49.398;7.614;2023-04-26T05:32:10;1.20;99.90
50570;DHT22;36525;49.398;7.614;2023-04-26T05:34:37;1.30;99.90
50570;DHT22;36525;49.398;7.614;2023-04-26T05:37:05;1.30;99.90
50570;DHT22;36525;49.398;7.614;2023-04-26T05:39:32;1.40;99.90
50570;DHT22;36525;49.398;7.614;2023-04-26T05:42:00;1.50;99.90
50570;DHT22;36525;49.398;7.614;2023-04-26T05:44:29;1.70;99.90
50570;DHT22;36525;49.398;7.614;2023-04-26T05:46:56;1.90;99.90
50570;DHT22;36525;49.398;7.614;2023-04-26T05:49:23;2.10;99.90
50570;DHT22;36525;49.398;7.614;2023-04-26T05:51:50;2.30;99.90
50570;DHT22;36525;49.398;7.614;2023-04-26T05:54:17;2.40;99.90
50570;DHT22;36525;49.398;7.614;2023-04-26T05:56:44;2.60;99.90
50570;DHT22;36525;49.398;7.614;2023-04-26T05:59:11;2.80;99.90
50570;DHT22;36525;49.398;7.614;2023-04-26T06:01:39;2.90;99.90
50570;DHT22;36525;49.398;7.614;2023-04-26T06:04:06;2.90;99.90
50570;DHT22;36525;49.398;7.614;2023-04-26T06:06:34;2.80;99.90
50570;DHT22;36525;49.398;7.614;2023-04-26T06:09:01;2.80;99.90
50570;DHT22;36525;49.398;7.614;2023-04-26T06:11:28;3.00;99.90
50570;DHT22;36525;49.398;7.614;2023-04-26T06:13:55;3.20;99.90
50570;DHT22;36525;49.398;7.614;2023-04-26T06:16:22;3.40;99.90
50570;DHT22;36525;49.398;7.614;2023-04-26T06:18:49;3.60;99.90
50570;DHT22;36525;49.398;7.614;2023-04-26T06:21:16;3.90;99.90
50570;DHT22;36525;49.398;7.614;2023-04-26T06:23:44;4.10;99.90
50570;DHT22;36525;49.398;7.614;2023-04-26T06:26:12;4.40;99.90
50570;DHT22;36525;49.398;7.614;2023-04-26T06:28:39;4.60;99.90
50570;DHT22;36525;49.398;7.614;2023-04-26T06:31:07;4.80;99.90
50570;DHT22;36525;49.398;7.614;2023-04-26T06:33:38;5.00;99.90
50570;DHT22;36525;49.398;7.614;2023-04-26T06:36:09;5.10;99.90
50570;DHT22;36525;49.398;7.614;2023-04-26T06:38:38;5.30;99.90
50570;DHT22;36525;49.398;7.614;2023-04-26T06:41:05;5.40;99.90
50570;DHT22;36525;49.398;7.614;2023-04-26T06:43:32;5.50;99.90
50570;DHT22;36525;49.398;7.614;2023-04-26T06:45:59;5.70;99.90
50570;DHT22;36525;49.398;7.614;2023-04-26T06:48:26;5.90;99.90
50570;DHT22;36525;49.398;7.614;2023-04-26T06:50:53;6.20;99.90
50570;DHT22;36525;49.398;7.614;2023-04-26T06:53:20;6.50;99.90
50570;DHT22;36525;49.398;7.614;2023-04-26T06:55:48;6.70;99.90
50570;DHT22;36525;49.398;7.614;2023-04-26T06:58:16;6.90;99.90
50570;DHT22;36525;49.398;7.614;2023-04-26T07:00:43;7.20;99.90
50570;DHT22;36525;49.398;7.614;2023-04-26T07:03:10;7.20;99.90
50570;DHT22;36525;49.398;7.614;2023-04-26T07:05:38;7.30;99.90
50570;DHT22;36525;49.398;7.614;2023-04-26T07:08:06;7.30;99.90
50570;DHT22;36525;49.398;7.614;2023-04-26T07:10:33;7.40;99.90
50570;DHT22;36525;49.398;7.614;2023-04-26T07:13:00;7.60;99.90
50570;DHT22;36525;49.398;7.614;2023-04-26T07:15:27;7.80;99.90
50570;DHT22;36525;49.398;7.614;2023-04-26T07:17:58;7.90;99.90
50570;DHT22;36525;49.398;7.614;2023-04-26T07:20:25;7.70;99.90
50570;DHT22;36525;49.398;7.614;2023-04-26T07:22:52;7.80;99.90
50570;DHT22;36525;49.398;7.614;2023-04-26T07:25:19;7.80;99.90
50570;DHT22;36525;49.398;7.614;2023-04-26T07:27:46;7.90;99.90
50570;DHT22;36525;49.398;7.614;2023-04-26T07:30:13;8.10;99.90
50570;DHT22;36525;49.398;7.614;2023-04-26T07:32:40;8.20;99.90
50570;DHT22;36525;49.398;7.614;2023-04-26T07:35:10;8.30;99.90
50570;DHT22;36525;49.398;7.614;2023-04-26T07:37:43;8.40;99.90
50570;DHT22;36525;49.398;7.614;2023-04-26T07:40:13;8.50;99.90
50570;DHT22;36525;49.398;7.614;2023-04-26T07:42:41;8.30;99.90
50570;DHT22;36525;49.398;7.614;2023-04-26T07:45:08;8.40;99.90
50570;DHT22;36525;49.398;7.614;2023-04-26T07:47:36;8.60;99.90
50570;DHT22;36525;49.398;7.614;2023-04-26T07:50:03;8.80;99.90
50570;DHT22;36525;49.398;7.614;2023-04-26T07:52:31;8.90;99.90
50570;DHT22;36525;49.398;7.614;2023-04-26T07:54:59;8.90;99.90
50570;DHT22;36525;49.398;7.614;2023-04-26T07:57:26;9.00;99.90
50570;DHT22;36525;49.398;7.614;2023-04-26T07:59:53;9.10;99.90
50570;DHT22;36525;49.398;7.614;2023-04-26T08:02:23;9.20;99.90
50570;DHT22;36525;49.398;7.614;2023-04-26T08:05:08;9.20;99.90
50570;DHT22;36525;49.398;7.614;2023-04-26T08:07:36;9.30;99.90
50570;DHT22;36525;49.398;7.614;2023-04-26T08:10:03;9.30;99.90
50570;DHT22;36525;49.398;7.614;2023-04-26T08:12:31;9.30;99.90
50570;DHT22;36525;49.398;7.614;2023-04-26T08:14:59;9.30;99.90
50570;DHT22;36525;49.398;7.614;2023-04-26T08:17:27;9.30;99.90
50570;DHT22;36525;49.398;7.614;2023-04-26T08:19:54;9.50;99.90
50570;DHT22;36525;49.398;7.614;2023-04-26T08:22:21;9.80;99.90
50570;DHT22;36525;49.398;7.614;2023-04-26T08:24:54;10.10;99.90
50570;DHT22;36525;49.398;7.614;2023-04-26T08:27:21;10.40;99.90
50570;DHT22;36525;49.398;7.614;2023-04-26T08:29:49;11.00;99.90
50570;DHT22;36525;49.398;7.614;2023-04-26T08:32:16;11.30;99.90
50570;DHT22;36525;49.398;7.614;2023-04-26T08:34:43;11.70;99.90
50570;DHT22;36525;49.398;7.614;2023-04-26T08:37:10;12.30;99.90
50570;DHT22;36525;49.398;7.614;2023-04-26T08:39:38;12.50;99.90
50570;DHT22;36525;49.398;7.614;2023-04-26T08:42:12;12.10;99.90
50570;DHT22;36525;49.398;7.614;2023-04-26T08:44:44;11.80;99.90
50570;DHT22;36525;49.398;7.614;2023-04-26T08:47:18;11.70;99.90
50570;DHT22;36525;49.398;7.614;2023-04-26T08:49:57;11.90;99.90
50570;DHT22;36525;49.398;7.614;2023-04-26T08:52:30;12.20;99.90
50570;DHT22;36525;49.398;7.614;2023-04-26T08:54:58;12.80;99.90
50570;DHT22;36525;49.398;7.614;2023-04-26T08:57:26;13.80;99.90
50570;DHT22;36525;49.398;7.614;2023-04-26T08:59:56;14.70;97.70
50570;DHT22;36525;49.398;7.614;2023-04-26T09:02:24;15.90;97.40
50570;DHT22;36525;49.398;7.614;2023-04-26T09:04:51;16.30;96.10
50570;DHT22;36525;49.398;7.614;2023-04-26T09:07:29;16.20;94.30
50570;DHT22;36525;49.398;7.614;2023-04-26T09:09:58;16.10;94.50
50570;DHT22;36525;49.398;7.614;2023-04-26T09:12:27;15.50;94.00
50570;DHT22;36525;49.398;7.614;2023-04-26T09:14:54;15.00;93.90
50570;DHT22;36525;49.398;7.614;2023-04-26T09:17:30;14.50;94.40
50570;DHT22;36525;49.398;7.614;2023-04-26T09:20:00;14.30;95.10
50570;DHT22;36525;49.398;7.614;2023-04-26T09:22:35;14.00;94.60
50570;DHT22;36525;49.398;7.614;2023-04-26T09:25:04;13.30;95.80
50570;DHT22;36525;49.398;7.614;2023-04-26T09:27:38;12.60;95.50
50570;DHT22;36525;49.398;7.614;2023-04-26T09:30:16;12.30;96.20
50570;DHT22;36525;49.398;7.614;2023-04-26T09:33:11;12.00;96.00
50570;DHT22;36525;49.398;7.614;2023-04-26T09:35:42;12.00;96.40
50570;DHT22;36525;49.398;7.614;2023-04-26T09:38:17;11.80;94.80
50570;DHT22;36525;49.398;7.614;2023-04-26T09:40:45;11.90;95.50
50570;DHT22;36525;49.398;7.614;2023-04-26T09:43:18;11.90;94.80
50570;DHT22;36525;49.398;7.614;2023-04-26T09:45:50;12.00;95.60
50570;DHT22;36525;49.398;7.614;2023-04-26T09:48:27;12.30;95.20
50570;DHT22;36525;49.398;7.614;2023-04-26T09:50:58;12.20;95.00
50570;DHT22;36525;49.398;7.614;2023-04-26T09:53:40;12.30;95.10
50570;DHT22;36525;49.398;7.614;2023-04-26T09:56:12;12.50;96.10
50570;DHT22;36525;49.398;7.614;2023-04-26T10:01:14;13.10;95.50
50570;DHT22;36525;49.398;7.614;2023-04-26T10:03:45;13.20;94.80
50570;DHT22;36525;49.398;7.614;2023-04-26T10:06:12;13.30;94.80
50570;DHT22;36525;49.398;7.614;2023-04-26T10:08:40;13.80;96.20
50570;DHT22;36525;49.398;7.614;2023-04-26T10:11:08;14.40;95.10
50570;DHT22;36525;49.398;7.614;2023-04-26T10:13:39;15.10;93.40
50570;DHT22;36525;49.398;7.614;2023-04-26T10:16:10;15.20;92.80
50570;DHT22;36525;49.398;7.614;2023-04-26T10:18:37;15.60;92.30
50570;DHT22;36525;49.398;7.614;2023-04-26T10:21:20;15.40;91.80
50570;DHT22;36525;49.398;7.614;2023-04-26T10:23:54;14.80;92.00
50570;DHT22;36525;49.398;7.614;2023-04-26T10:26:49;14.60;91.70
50570;DHT22;36525;49.398;7.614;2023-04-26T10:29:19;15.10;91.50
50570;DHT22;36525;49.398;7.614;2023-04-26T10:34:30;16.80;91.90
50570;DHT22;36525;49.398;7.614;2023-04-26T10:37:15;17.50;90.20
50570;DHT22;36525;49.398;7.614;2023-04-26T10:39:44;17.80;88.30
50570;DHT22;36525;49.398;7.614;2023-04-26T10:47:40;17.30;87.90
50570;DHT22;36525;49.398;7.614;2023-04-26T10:50:11;16.70;87.30
50570;DHT22;36525;49.398;7.614;2023-04-26T10:55:39;15.30;85.40
50570;DHT22;36525;49.398;7.614;2023-04-26T10:58:33;15.70;87.20
50570;DHT22;36525;49.398;7.614;2023-04-26T11:01:07;15.30;86.70
50570;DHT22;36525;49.398;7.614;2023-04-26T11:04:00;15.20;86.30
50570;DHT22;36525;49.398;7.614;2023-04-26T11:06:54;15.60;86.90
50570;DHT22;36525;49.398;7.614;2023-04-26T11:09:39;15.90;84.00
50570;DHT22;36525;49.398;7.614;2023-04-26T11:12:14;14.40;85.50
50570;DHT22;36525;49.398;7.614;2023-04-26T11:14:44;14.20;88.50
50570;DHT22;36525;49.398;7.614;2023-04-26T11:17:12;14.50;87.30
50570;DHT22;36525;49.398;7.614;2023-04-26T11:19:45;14.40;86.30
50570;DHT22;36525;49.398;7.614;2023-04-26T11:22:15;14.70;89.60
50570;DHT22;36525;49.398;7.614;2023-04-26T11:24:48;15.50;90.10
50570;DHT22;36525;49.398;7.614;2023-04-26T11:27:16;16.80;90.20
50570;DHT22;36525;49.398;7.614;2023-04-26T11:29:43;17.70;90.60
50570;DHT22;36525;49.398;7.614;2023-04-26T11:32:11;16.60;85.60
50570;DHT22;36525;49.398;7.614;2023-04-26T11:34:39;15.00;83.20
50570;DHT22;36525;49.398;7.614;2023-04-26T11:37:07;15.40;84.70
50570;DHT22;36525;49.398;7.614;2023-04-26T11:39:35;14.90;84.90
50570;DHT22;36525;49.398;7.614;2023-04-26T11:42:10;14.40;86.30
50570;DHT22;36525;49.398;7.614;2023-04-26T11:44:39;15.00;87.50
50570;DHT22;36525;49.398;7.614;2023-04-26T11:47:07;15.30;88.20
50570;DHT22;36525;49.398;7.614;2023-04-26T11:49:36;16.10;84.60
50570;DHT22;36525;49.398;7.614;2023-04-26T11:52:07;15.40;82.10
50570;DHT22;36525;49.398;7.614;2023-04-26T11:54:35;16.10;88.70
50570;DHT22;36525;49.398;7.614;2023-04-26T11:57:13;16.80;83.90
50570;DHT22;36525;49.398;7.614;2023-04-26T11:59:44;17.60;83.10
50570;DHT22;36525;49.398;7.614;2023-04-26T12:02:11;17.20;82.50
50570;DHT22;36525;49.398;7.614;2023-04-26T12:04:39;15.90;81.40
50570;DHT22;36525;49.398;7.614;2023-04-26T12:07:07;14.80;80.70
50570;DHT22;36525;49.398;7.614;2023-04-26T12:09:39;14.80;84.00
50570;DHT22;36525;49.398;7.614;2023-04-26T12:12:11;14.60;85.00
50570;DHT22;36525;49.398;7.614;2023-04-26T12:14:39;14.90;88.20
50570;DHT22;36525;49.398;7.614;2023-04-26T12:17:06;15.40;85.80
50570;DHT22;36525;49.398;7.614;2023-04-26T12:19:38;15.40;85.90
50570;DHT22;36525;49.398;7.614;2023-04-26T12:22:07;15.10;87.10
50570;DHT22;36525;49.398;7.614;2023-04-26T12:24:37;15.30;83.90
50570;DHT22;36525;49.398;7.614;2023-04-26T12:27:06;14.80;83.40
50570;DHT22;36525;49.398;7.614;2023-04-26T12:29:34;14.40;83.40
50570;DHT22;36525;49.398;7.614;2023-04-26T12:32:01;14.20;85.10
50570;DHT22;36525;49.398;7.614;2023-04-26T12:34:29;13.60;84.20
50570;DHT22;36525;49.398;7.614;2023-04-26T12:36:56;13.60;84.60
50570;DHT22;36525;49.398;7.614;2023-04-26T12:39:23;14.30;87.80
50570;DHT22;36525;49.398;7.614;2023-04-26T12:41:51;14.40;85.20
50570;DHT22;36525;49.398;7.614;2023-04-26T12:44:18;15.00;84.70
50570;DHT22;36525;49.398;7.614;2023-04-26T12:46:48;15.30;84.00
50570;DHT22;36525;49.398;7.614;2023-04-26T12:49:15;15.50;85.00
50570;DHT22;36525;49.398;7.614;2023-04-26T12:51:42;15.60;81.20
50570;DHT22;36525;49.398;7.614;2023-04-26T12:54:09;16.10;83.10
50570;DHT22;36525;49.398;7.614;2023-04-26T12:56:36;16.10;83.90
50570;DHT22;36525;49.398;7.614;2023-04-26T12:59:09;16.20;84.70
50570;DHT22;36525;49.398;7.614;2023-04-26T13:01:36;16.60;85.30
50570;DHT22;36525;49.398;7.614;2023-04-26T13:04:04;17.20;84.20
50570;DHT22;36525;49.398;7.614;2023-04-26T13:06:32;17.70;84.60
50570;DHT22;36525;49.398;7.614;2023-04-26T13:09:01;17.30;82.10
50570;DHT22;36525;49.398;7.614;2023-04-26T13:11:28;16.30;80.50
50570;DHT22;36525;49.398;7.614;2023-04-26T13:13:55;16.50;83.50
50570;DHT22;36525;49.398;7.614;2023-04-26T13:16:22;16.80;78.30
50570;DHT22;36525;49.398;7.614;2023-04-26T13:18:50;17.30;81.80
50570;DHT22;36525;49.398;7.614;2023-04-26T13:21:17;18.00;83.60
50570;DHT22;36525;49.398;7.614;2023-04-26T13:23:44;18.50;84.00
50570;DHT22;36525;49.398;7.614;2023-04-26T13:26:13;19.10;81.30
50570;DHT22;36525;49.398;7.614;2023-04-26T13:28:45;19.50;79.60
50570;DHT22;36525;49.398;7.614;2023-04-26T13:31:13;19.60;78.20
50570;DHT22;36525;49.398;7.614;2023-04-26T13:33:43;20.00;79.90
50570;DHT22;36525;49.398;7.614;2023-04-26T13:36:13;20.50;75.70
50570;DHT22;36525;49.398;7.614;2023-04-26T13:38:42;21.10;75.90
50570;DHT22;36525;49.398;7.614;2023-04-26T13:41:10;21.70;74.00
50570;DHT22;36525;49.398;7.614;2023-04-26T13:43:37;22.00;71.70
50570;DHT22;36525;49.398;7.614;2023-04-26T13:46:04;22.10;71.90
50570;DHT22;36525;49.398;7.614;2023-04-26T13:48:31;22.10;72.80
50570;DHT22;36525;49.398;7.614;2023-04-26T13:50:58;22.30;68.60
50570;DHT22;36525;49.398;7.614;2023-04-26T13:53:26;22.40;71.10
50570;DHT22;36525;49.398;7.614;2023-04-26T13:55:53;22.50;70.90
50570;DHT22;36525;49.398;7.614;2023-04-26T13:58:21;22.10;69.10
50570;DHT22;36525;49.398;7.614;2023-04-26T14:00:48;22.00;70.80
50570;DHT22;36525;49.398;7.614;2023-04-26T14:03:15;21.20;68.70
50570;DHT22;36525;49.398;7.614;2023-04-26T14:05:42;19.90;71.70
50570;DHT22;36525;49.398;7.614;2023-04-26T14:08:09;19.30;73.30
50570;DHT22;36525;49.398;7.614;2023-04-26T14:10:38;19.30;74.60
50570;DHT22;36525;49.398;7.614;2023-04-26T14:13:07;19.60;72.70
50570;DHT22;36525;49.398;7.614;2023-04-26T14:15:34;19.40;71.20
50570;DHT22;36525;49.398;7.614;2023-04-26T14:18:02;18.80;71.20
50570;DHT22;36525;49.398;7.614;2023-04-26T14:20:30;18.50;72.20
50570;DHT22;36525;49.398;7.614;2023-04-26T14:22:57;19.40;75.80
50570;DHT22;36525;49.398;7.614;2023-04-26T14:25:24;20.60;72.30
50570;DHT22;36525;49.398;7.614;2023-04-26T14:27:53;21.30;70.20
50570;DHT22;36525;49.398;7.614;2023-04-26T14:30:20;21.90;70.10
50570;DHT22;36525;49.398;7.614;2023-04-26T14:32:47;22.40;69.80
50570;DHT22;36525;49.398;7.614;2023-04-26T14:35:14;22.50;68.90
50570;DHT22;36525;49.398;7.614;2023-04-26T14:37:41;22.10;67.80
50570;DHT22;36525;49.398;7.614;2023-04-26T14:40:09;22.20;68.40
50570;DHT22;36525;49.398;7.614;2023-04-26T14:42:37;22.70;66.80
50570;DHT22;36525;49.398;7.614;2023-04-26T14:45:11;23.30;68.60
50570;DHT22;36525;49.398;7.614;2023-04-26T14:47:39;23.70;68.40
50570;DHT22;36525;49.398;7.614;2023-04-26T14:50:06;23.90;64.00
50570;DHT22;36525;49.398;7.614;2023-04-26T14:52:36;24.10;67.20
50570;DHT22;36525;49.398;7.614;2023-04-26T14:57:31;24.90;64.50
50570;DHT22;36525;49.398;7.614;2023-04-26T14:59:58;25.30;63.10
50570;DHT22;36525;49.398;7.614;2023-04-26T15:02:32;24.90;62.00
50570;DHT22;36525;49.398;7.614;2023-04-26T15:05:00;24.20;61.80
50570;DHT22;36525;49.398;7.614;2023-04-26T15:07:33;23.10;62.70
50570;DHT22;36525;49.398;7.614;2023-04-26T15:10:01;23.50;62.70
50570;DHT22;36525;49.398;7.614;2023-04-26T15:12:28;24.10;62.70
50570;DHT22;36525;49.398;7.614;2023-04-26T15:14:55;24.40;61.80
50570;DHT22;36525;49.398;7.614;2023-04-26T15:17:22;23.30;61.80
50570;DHT22;36525;49.398;7.614;2023-04-26T15:19:50;22.40;62.90
50570;DHT22;36525;49.398;7.614;2023-04-26T15:22:17;22.10;63.30
50570;DHT22;36525;49.398;7.614;2023-04-26T15:24:44;21.60;64.50
50570;DHT22;36525;49.398;7.614;2023-04-26T15:27:11;21.20;64.20
50570;DHT22;36525;49.398;7.614;2023-04-26T15:29:38;20.70;63.00
50570;DHT22;36525;49.398;7.614;2023-04-26T15:32:05;20.40;67.20
50570;DHT22;36525;49.398;7.614;2023-04-26T15:34:39;20.30;65.00
50570;DHT22;36525;49.398;7.614;2023-04-26T15:37:08;19.60;64.40
50570;DHT22;36525;49.398;7.614;2023-04-26T15:39:36;19.50;67.20
50570;DHT22;36525;49.398;7.614;2023-04-26T15:42:04;19.60;67.90
50570;DHT22;36525;49.398;7.614;2023-04-26T15:44:31;19.40;65.50
50570;DHT22;36525;49.398;7.614;2023-04-26T15:46:59;19.40;76.90
50570;DHT22;36525;49.398;7.614;2023-04-26T15:49:27;19.30;77.30
50570;DHT22;36525;49.398;7.614;2023-04-26T15:54:23;18.60;65.60
50570;DHT22;36525;49.398;7.614;2023-04-26T15:56:51;18.10;69.80
50570;DHT22;36525;49.398;7.614;2023-04-26T15:59:19;17.70;69.70
50570;DHT22;36525;49.398;7.614;2023-04-26T16:01:46;17.30;68.10
50570;DHT22;36525;49.398;7.614;2023-04-26T16:04:13;16.50;68.10
50570;DHT22;36525;49.398;7.614;2023-04-26T16:06:41;16.20;71.30
50570;DHT22;36525;49.398;7.614;2023-04-26T16:09:08;16.20;69.30